sensor_id;sensor_type;location;lat;lon;timestamp;P1;P4;P2;P0;N10;N4;N25;N1;N05;TS
79462;SPS30;68931;47.286;18.756;2024-02-26T00:00:01;0.00;0.00;0.00;0.00;;;;215.33;1.00;
79462;SPS30;68931;47.286;18.756;2024-02-26T00:00:33;0.00;0.00;0.00;0.00;;;;214.00;1.00;
79462;SPS30;68931;47.286;18.756;2024-02-26T00:01:06;0.00;0.00;0.00;0.00;;;;212.33;1.00;
79462;SPS30;68931;47.286;18.756;2024-02-26T00:01:38;0.00;0.00;0.00;0.00;;;;210.67;1.00;
79462;SPS30;68931;47.286;18.756;2024-02-26T00:02:11;0.00;0.00;0.00;0.00;;;;210.00;1.00;
79462;SPS30;68931;47.286;18.756;2024-02-26T00:02:43;0.00;0.00;0.00;0.00;;;;210.00;1.00;
79462;SPS30;68931;47.286;18.756;2024-02-26T00:03:15;0.00;0.00;0.00;0.00;;;;211.00;1.00;
79462;SPS30;68931;47.286;18.756;2024-02-26T00:03:47;0.00;0.00;0.00;0.00;;;;211.00;1.00;
79462;SPS30;68931;47.286;18.756;2024-02-26T00:04:20;0.00;0.00;0.00;0.00;;;;211.67;1.00;
79462;SPS30;68931;47.286;18.756;2024-02-26T00:04:53;0.00;0.00;0.00;0.00;;;;212.33;1.00;
79462;SPS30;68931;47.286;18.756;2024-02-26T00:05:25;0.00;0.00;0.00;0.00;;;;213.00;1.00;
79462;SPS30;68931;47.286;18.756;2024-02-26T00:05:57;0.00;0.00;0.00;0.00;;;;213.00;1.00;
79462;SPS30;68931;47.286;18.756;2024-02-26T00:06:29;0.00;0.00;0.00;0.00;;;;213.33;1.00;
79462;SPS30;68931;47.286;18.756;2024-02-26T00:07:02;0.00;0.00;0.00;0.00;;;;214.00;1.00;
79462;SPS30;68931;47.286;18.756;2024-02-26T00:07:35;0.00;0.00;0.00;0.00;;;;214.00;1.00;
79462;SPS30;68931;47.286;18.756;2024-02-26T00:08:07;0.00;0.00;0.00;0.00;;;;213.33;1.00;
79462;SPS30;68931;47.286;18.756;2024-02-26T00:08:39;0.00;0.00;0.00;0.00;;;;212.33;1.00;
79462;SPS30;68931;47.286;18.756;2024-02-26T00:09:11;0.00;0.00;0.00;0.00;;;;212.00;1.00;
79462;SPS30;68931;47.286;18.756;2024-02-26T00:09:43;0.00;0.00;0.00;0.00;;;;212.00;1.00;
79462;SPS30;68931;47.286;18.756;2024-02-26T00:10:15;0.00;0.00;0.00;0.00;;;;211.00;1.00;
79462;SPS30;68931;47.286;18.756;2024-02-26T00:10:47;0.00;0.00;0.00;0.00;;;;210.00;1.00;
79462;SPS30;68931;47.286;18.756;2024-02-26T00:11:19;0.00;0.00;0.00;0.00;;;;207.00;1.00;
79462;SPS30;68931;47.286;18.756;2024-02-26T00:11:51;0.00;0.00;0.00;0.00;;;;204.00;1.00;
79462;SPS30;68931;47.286;18.756;2024-02-26T00:12:23;0.00;0.00;0.00;0.00;;;;201.67;1.00;
79462;SPS30;68931;47.286;18.756;2024-02-26T00:12:55;0.00;0.00;0.00;0.00;;;;200.00;1.00;
79462;SPS30;68931;47.286;18.756;2024-02-26T00:13:27;0.00;0.00;0.00;0.00;;;;197.00;1.00;
79462;SPS30;68931;47.286;18.756;2024-02-26T00:13:59;0.00;0.00;0.00;0.00;;;;194.33;1.00;
79462;SPS30;68931;47.286;18.756;2024-02-26T00:14:31;0.00;0.00;0.00;0.00;;;;192.67;1.00;
79462;SPS30;68931;47.286;18.756;2024-02-26T00:15:03;0.00;0.00;0.00;0.00;;;;192.00;1.00;
79462;SPS30;68931;47.286;18.756;2024-02-26T00:15:35;0.00;0.00;0.00;0.00;;;;192.00;1.00;
79462;SPS30;68931;47.286;18.756;2024-02-26T00:16:07;0.00;0.00;0.00;0.00;;;;192.33;1.00;
79462;SPS30;68931;47.286;18.756;2024-02-26T00:16:40;0.00;0.00;0.00;0.00;;;;193.00;1.00;
79462;SPS30;68931;47.286;18.756;2024-02-26T00:17:13;0.00;0.00;0.00;0.00;;;;193.00;1.00;
79462;SPS30;68931;47.286;18.756;2024-02-26T00:17:45;0.00;0.00;0.00;0.00;;;;193.00;1.00;
79462;SPS30;68931;47.286;18.756;2024-02-26T00:18:17;0.00;0.00;0.00;0.00;;;;193.00;1.00;
79462;SPS30;68931;47.286;18.756;2024-02-26T00:18:49;0.00;0.00;0.00;0.00;;;;193.00;1.00;
79462;SPS30;68931;47.286;18.756;2024-02-26T00:19:21;0.00;0.00;0.00;0.00;;;;193.00;1.00;
79462;SPS30;68931;47.286;18.756;2024-02-26T00:19:54;0.00;0.00;0.00;0.00;;;;192.33;1.00;
79462;SPS30;68931;47.286;18.756;2024-02-26T00:20:26;0.00;0.00;0.00;0.00;;;;192.00;1.00;
79462;SPS30;68931;47.286;18.756;2024-02-26T00:20:58;0.00;0.00;0.00;0.00;;;;191.67;1.00;
79462;SPS30;68931;47.286;18.756;2024-02-26T00:21:30;0.00;0.00;0.00;0.00;;;;191.00;1.00;
79462;SPS30;68931;47.286;18.756;2024-02-26T00:22:02;0.00;0.00;0.00;0.00;;;;190.33;1.00;
79462;SPS30;68931;47.286;18.756;2024-02-26T00:22:34;0.00;0.00;0.00;0.00;;;;190.00;1.00;
79462;SPS30;68931;47.286;18.756;2024-02-26T00:23:07;0.00;0.00;0.00;0.00;;;;190.00;1.00;
79462;SPS30;68931;47.286;18.756;2024-02-26T00:23:39;0.00;0.00;0.00;0.00;;;;190.00;1.00;
79462;SPS30;68931;47.286;18.756;2024-02-26T00:24:11;0.00;0.00;0.00;0.00;;;;190.00;1.00;
79462;SPS30;68931;47.286;18.756;2024-02-26T00:24:43;0.00;0.00;0.00;0.00;;;;190.00;1.00;
79462;SPS30;68931;47.286;18.756;2024-02-26T00:25:15;0.00;0.00;0.00;0.00;;;;190.00;1.00;
79462;SPS30;68931;47.286;18.756;2024-02-26T00:25:47;0.00;0.00;0.00;0.00;;;;190.00;1.00;
79462;SPS30;68931;47.286;18.756;2024-02-26T00:26:19;0.00;0.00;0.00;0.00;;;;190.00;1.00;
79462;SPS30;68931;47.286;18.756;2024-02-26T00:26:51;0.00;0.00;0.00;0.00;;;;190.00;1.00;
79462;SPS30;68931;47.286;18.756;2024-02-26T00:27:26;0.00;0.00;0.00;0.00;;;;191.00;1.00;
79462;SPS30;68931;47.286;18.756;2024-02-26T00:27:58;0.00;0.00;0.00;0.00;;;;191.00;1.00;
79462;SPS30;68931;47.286;18.756;2024-02-26T00:28:30;0.00;0.00;0.00;0.00;;;;191.00;1.00;
79462;SPS30;68931;47.286;18.756;2024-02-26T00:29:02;0.00;0.00;0.00;0.00;;;;191.00;1.00;
79462;SPS30;68931;47.286;18.756;2024-02-26T00:29:34;0.00;0.00;0.00;0.00;;;;191.00;1.00;
79462;SPS30;68931;47.286;18.756;2024-02-26T00:30:06;0.00;0.00;0.00;0.00;;;;190.00;1.00;
79462;SPS30;68931;47.286;18.756;2024-02-26T00:30:39;0.00;0.00;0.00;0.00;;;;190.00;1.00;
79462;SPS30;68931;47.286;18.756;2024-02-26T00:31:11;0.00;0.00;0.00;0.00;;;;189.67;1.00;
79462;SPS30;68931;47.286;18.756;2024-02-26T00:31:43;0.00;0.00;0.00;0.00;;;;189.00;1.00;
79462;SPS30;68931;47.286;18.756;2024-02-26T00:32:15;0.00;0.00;0.00;0.00;;;;189.00;1.00;
79462;SPS30;68931;47.286;18.756;2024-02-26T00:32:47;0.00;0.00;0.00;0.00;;;;188.67;1.00;
79462;SPS30;68931;47.286;18.756;2024-02-26T00:33:19;0.00;0.00;0.00;0.00;;;;187.67;1.00;
79462;SPS30;68931;47.286;18.756;2024-02-26T00:33:52;0.00;0.00;0.00;0.00;;;;186.00;1.00;
79462;SPS30;68931;47.286;18.756;2024-02-26T00:34:25;0.00;0.00;0.00;0.00;;;;186.00;1.00;
79462;SPS30;68931;47.286;18.756;2024-02-26T00:34:57;0.00;0.00;0.00;0.00;;;;186.00;1.00;
79462;SPS30;68931;47.286;18.756;2024-02-26T00:35:29;0.00;0.00;0.00;0.00;;;;187.00;1.00;
79462;SPS30;68931;47.286;18.756;2024-02-26T00:36:01;0.00;0.00;0.00;0.00;;;;187.00;1.00;
79462;SPS30;68931;47.286;18.756;2024-02-26T00:36:33;0.00;0.00;0.00;0.00;;;;187.00;1.00;
79462;SPS30;68931;47.286;18.756;2024-02-26T00:37:05;0.00;0.00;0.00;0.00;;;;187.00;1.00;
79462;SPS30;68931;47.286;18.756;2024-02-26T00:37:37;0.00;0.00;0.00;0.00;;;;187.00;1.00;
79462;SPS30;68931;47.286;18.756;2024-02-26T00:38:09;0.00;0.00;0.00;0.00;;;;187.00;1.00;
79462;SPS30;68931;47.286;18.756;2024-02-26T00:38:41;0.00;0.00;0.00;0.00;;;;187.00;1.00;
79462;SPS30;68931;47.286;18.756;2024-02-26T00:39:14;0.00;0.00;0.00;0.00;;;;187.00;1.00;
79462;SPS30;68931;47.286;18.756;2024-02-26T00:39:46;0.00;0.00;0.00;0.00;;;;186.33;1.00;
79462;SPS30;68931;47.286;18.756;2024-02-26T00:40:18;0.00;0.00;0.00;0.00;;;;185.00;1.00;
79462;SPS30;68931;47.286;18.756;2024-02-26T00:40:50;0.00;0.00;0.00;0.00;;;;182.00;1.00;
79462;SPS30;68931;47.286;18.756;2024-02-26T00:41:22;0.00;0.00;0.00;0.00;;;;180.33;1.00;
79462;SPS30;68931;47.286;18.756;2024-02-26T00:41:54;0.00;0.00;0.00;0.00;;;;180.00;1.00;
79462;SPS30;68931;47.286;18.756;2024-02-26T00:42:26;0.00;0.00;0.00;0.00;;;;179.33;1.00;
79462;SPS30;68931;47.286;18.756;2024-02-26T00:42:58;0.00;0.00;0.00;0.00;;;;179.33;1.00;
79462;SPS30;68931;47.286;18.756;2024-02-26T00:43:30;0.00;0.00;0.00;0.00;;;;180.00;1.00;
79462;SPS30;68931;47.286;18.756;2024-02-26T00:44:02;0.00;0.00;0.00;0.00;;;;180.33;1.00;
79462;SPS30;68931;47.286;18.756;2024-02-26T00:44:34;0.00;0.00;0.00;0.00;;;;181.00;1.00;
79462;SPS30;68931;47.286;18.756;2024-02-26T00:45:06;0.00;0.00;0.00;0.00;;;;182.00;1.00;
79462;SPS30;68931;47.286;18.756;2024-02-26T00:45:39;0.00;0.00;0.00;0.00;;;;182.33;1.00;
79462;SPS30;68931;47.286;18.756;2024-02-26T00:46:11;0.00;0.00;0.00;0.00;;;;183.00;1.00;
79462;SPS30;68931;47.286;18.756;2024-02-26T00:46:43;0.00;0.00;0.00;0.00;;;;183.00;1.00;
79462;SPS30;68931;47.286;18.756;2024-02-26T00:47:15;0.00;0.00;0.00;0.00;;;;183.00;1.00;
79462;SPS30;68931;47.286;18.756;2024-02-26T00:47:47;0.00;0.00;0.00;0.00;;;;182.00;1.00;
79462;SPS30;68931;47.286;18.756;2024-02-26T00:48:20;0.00;0.00;0.00;0.00;;;;180.33;1.00;
79462;SPS30;68931;47.286;18.756;2024-02-26T00:48:52;0.00;0.00;0.00;0.00;;;;179.00;1.00;
79462;SPS30;68931;47.286;18.756;2024-02-26T00:49:24;0.00;0.00;0.00;0.00;;;;178.67;1.00;
79462;SPS30;68931;47.286;18.756;2024-02-26T00:49:56;0.00;0.00;0.00;0.00;;;;179.00;1.00;
79462;SPS30;68931;47.286;18.756;2024-02-26T00:50:28;0.00;0.00;0.00;0.00;;;;179.00;1.00;
79462;SPS30;68931;47.286;18.756;2024-02-26T00:51:03;0.00;0.00;0.00;0.00;;;;179.00;1.00;
79462;SPS30;68931;47.286;18.756;2024-02-26T00:51:39;0.00;0.00;0.00;0.00;;;;179.00;1.00;
79462;SPS30;68931;47.286;18.756;2024-02-26T00:52:11;0.00;0.00;0.00;0.00;;;;178.00;1.00;
79462;SPS30;68931;47.286;18.756;2024-02-26T00:52:43;0.00;0.00;0.00;0.00;;;;177.67;1.00;
79462;SPS30;68931;47.286;18.756;2024-02-26T00:53:15;0.00;0.00;0.00;0.00;;;;176.33;1.00;
79462;SPS30;68931;47.286;18.756;2024-02-26T00:53:47;0.00;0.00;0.00;0.00;;;;174.67;1.00;
79462;SPS30;68931;47.286;18.756;2024-02-26T00:54:19;0.00;0.00;0.00;0.00;;;;171.33;1.00;
79462;SPS30;68931;47.286;18.756;2024-02-26T00:54:51;0.00;0.00;0.00;0.00;;;;168.00;1.00;
79462;SPS30;68931;47.286;18.756;2024-02-26T00:55:23;0.00;0.00;0.00;0.00;;;;166.67;1.00;
79462;SPS30;68931;47.286;18.756;2024-02-26T00:55:55;0.00;0.00;0.00;0.00;;;;165.00;1.00;
79462;SPS30;68931;47.286;18.756;2024-02-26T00:56:27;0.00;0.00;0.00;0.00;;;;162.00;1.00;
79462;SPS30;68931;47.286;18.756;2024-02-26T00:57:01;0.00;0.00;0.00;0.00;;;;159.67;1.00;
79462;SPS30;68931;47.286;18.756;2024-02-26T00:57:33;0.00;0.00;0.00;0.00;;;;158.00;1.00;
79462;SPS30;68931;47.286;18.756;2024-02-26T00:58:06;0.00;0.00;0.00;0.00;;;;158.67;1.00;
79462;SPS30;68931;47.286;18.756;2024-02-26T00:58:38;0.00;0.00;0.00;0.00;;;;159.67;1.00;
79462;SPS30;68931;47.286;18.756;2024-02-26T00:59:10;0.00;0.00;0.00;0.00;;;;159.67;1.00;
79462;SPS30;68931;47.286;18.756;2024-02-26T00:59:42;0.00;0.00;0.00;0.00;;;;160.00;1.00;
79462;SPS30;68931;47.286;18.756;2024-02-26T01:00:15;0.00;0.00;0.00;0.00;;;;161.00;1.00;
79462;SPS30;68931;47.286;18.756;2024-02-26T01:00:47;0.00;0.00;0.00;0.00;;;;161.67;1.00;
79462;SPS30;68931;47.286;18.756;2024-02-26T01:01:19;0.00;0.00;0.00;0.00;;;;162.00;1.00;
79462;SPS30;68931;47.286;18.756;2024-02-26T01:01:51;0.00;0.00;0.00;0.00;;;;163.00;1.00;
79462;SPS30;68931;47.286;18.756;2024-02-26T01:02:23;0.00;0.00;0.00;0.00;;;;163.00;1.00;
79462;SPS30;68931;47.286;18.756;2024-02-26T01:02:55;0.00;0.00;0.00;0.00;;;;164.00;1.00;
79462;SPS30;68931;47.286;18.756;2024-02-26T01:03:30;0.00;0.00;0.00;0.00;;;;164.67;1.00;
79462;SPS30;68931;47.286;18.756;2024-02-26T01:04:02;0.00;0.00;0.00;0.00;;;;166.00;1.00;
79462;SPS30;68931;47.286;18.756;2024-02-26T01:04:34;0.00;0.00;0.00;0.00;;;;168.00;1.00;
79462;SPS30;68931;47.286;18.756;2024-02-26T01:05:07;0.00;0.00;0.00;0.00;;;;168.67;1.00;
79462;SPS30;68931;47.286;18.756;2024-02-26T01:05:43;0.00;0.00;0.00;0.00;;;;172.33;1.00;
79462;SPS30;68931;47.286;18.756;2024-02-26T01:06:15;0.00;0.00;0.00;0.00;;;;182.67;1.00;
79462;SPS30;68931;47.286;18.756;2024-02-26T01:06:47;0.00;0.00;0.00;0.00;;;;189.33;1.00;
79462;SPS30;68931;47.286;18.756;2024-02-26T01:07:19;0.00;0.00;0.00;0.00;;;;189.00;1.00;
79462;SPS30;68931;47.286;18.756;2024-02-26T01:07:51;0.00;0.00;0.00;0.00;;;;186.33;1.00;
79462;SPS30;68931;47.286;18.756;2024-02-26T01:08:23;0.00;0.00;0.00;0.00;;;;185.67;1.00;
79462;SPS30;68931;47.286;18.756;2024-02-26T01:08:55;0.00;0.00;0.00;0.00;;;;184.67;1.00;
79462;SPS30;68931;47.286;18.756;2024-02-26T01:09:29;0.00;0.00;0.00;0.00;;;;184.00;1.00;
79462;SPS30;68931;47.286;18.756;2024-02-26T01:10:02;0.00;0.00;0.00;0.00;;;;183.33;1.00;
79462;SPS30;68931;47.286;18.756;2024-02-26T01:10:35;0.00;0.00;0.00;0.00;;;;183.00;1.00;
79462;SPS30;68931;47.286;18.756;2024-02-26T01:11:10;0.00;0.00;0.00;0.00;;;;182.33;1.00;
79462;SPS30;68931;47.286;18.756;2024-02-26T01:11:42;0.00;0.00;0.00;0.00;;;;182.00;1.00;
79462;SPS30;68931;47.286;18.756;2024-02-26T01:12:14;0.00;0.00;0.00;0.00;;;;182.00;1.00;
79462;SPS30;68931;47.286;18.756;2024-02-26T01:12:47;0.00;0.00;0.00;0.00;;;;182.00;1.00;
79462;SPS30;68931;47.286;18.756;2024-02-26T01:13:19;0.00;0.00;0.00;0.00;;;;182.00;1.00;
79462;SPS30;68931;47.286;18.756;2024-02-26T01:13:51;0.00;0.00;0.00;0.00;;;;182.00;1.00;
79462;SPS30;68931;47.286;18.756;2024-02-26T01:14:27;0.00;0.00;0.00;0.00;;;;182.00;1.00;
79462;SPS30;68931;47.286;18.756;2024-02-26T01:15:00;0.00;0.00;0.00;0.00;;;;183.00;1.00;
79462;SPS30;68931;47.286;18.756;2024-02-26T01:15:35;0.00;0.00;0.00;0.00;;;;182.33;1.00;
79462;SPS30;68931;47.286;18.756;2024-02-26T01:16:07;0.00;0.00;0.00;0.00;;;;182.00;1.00;
79462;SPS30;68931;47.286;18.756;2024-02-26T01:16:39;0.00;0.00;0.00;0.00;;;;182.00;1.00;
79462;SPS30;68931;47.286;18.756;2024-02-26T01:17:11;0.00;0.00;0.00;0.00;;;;182.00;1.00;
79462;SPS30;68931;47.286;18.756;2024-02-26T01:17:43;0.00;0.00;0.00;0.00;;;;182.00;1.00;
79462;SPS30;68931;47.286;18.756;2024-02-26T01:18:15;0.00;0.00;0.00;0.00;;;;181.00;1.00;
79462;SPS30;68931;47.286;18.756;2024-02-26T01:18:47;0.00;0.00;0.00;0.00;;;;181.00;1.00;
79462;SPS30;68931;47.286;18.756;2024-02-26T01:19:19;0.00;0.00;0.00;0.00;;;;180.67;1.00;
79462;SPS30;68931;47.286;18.756;2024-02-26T01:19:52;0.00;0.00;0.00;0.00;;;;179.00;1.00;
79462;SPS30;68931;47.286;18.756;2024-02-26T01:20:25;0.00;0.00;0.00;0.00;;;;177.00;1.00;
79462;SPS30;68931;47.286;18.756;2024-02-26T01:20:59;0.00;0.00;0.00;0.00;;;;174.00;1.00;
79462;SPS30;68931;47.286;18.756;2024-02-26T01:21:31;0.00;0.00;0.00;0.00;;;;172.67;1.00;
79462;SPS30;68931;47.286;18.756;2024-02-26T01:22:03;0.00;0.00;0.00;0.00;;;;172.00;1.00;
79462;SPS30;68931;47.286;18.756;2024-02-26T01:22:35;0.00;0.00;0.00;0.00;;;;171.67;1.00;
79462;SPS30;68931;47.286;18.756;2024-02-26T01:23:07;0.00;0.00;0.00;0.00;;;;171.00;1.00;
79462;SPS30;68931;47.286;18.756;2024-02-26T01:23:39;0.00;0.00;0.00;0.00;;;;171.00;1.00;
79462;SPS30;68931;47.286;18.756;2024-02-26T01:24:11;0.00;0.00;0.00;0.00;;;;171.00;1.00;
79462;SPS30;68931;47.286;18.756;2024-02-26T01:24:43;0.00;0.00;0.00;0.00;;;;170.67;1.00;
79462;SPS30;68931;47.286;18.756;2024-02-26T01:25:15;0.00;0.00;0.00;0.00;;;;168.67;1.00;
79462;SPS30;68931;47.286;18.756;2024-02-26T01:25:48;0.00;0.00;0.00;0.00;;;;167.67;1.00;
79462;SPS30;68931;47.286;18.756;2024-02-26T01:26:20;0.00;0.00;0.00;0.00;;;;167.00;1.00;
79462;SPS30;68931;47.286;18.756;2024-02-26T01:26:53;0.00;0.00;0.00;0.00;;;;167.00;1.00;
79462;SPS30;68931;47.286;18.756;2024-02-26T01:27:25;0.00;0.00;0.00;0.00;;;;167.00;1.00;
79462;SPS30;68931;47.286;18.756;2024-02-26T01:27:59;0.00;0.00;0.00;0.00;;;;166.00;1.00;
79462;SPS30;68931;47.286;18.756;2024-02-26T01:28:30;0.00;0.00;0.00;0.00;;;;165.33;1.00;
79462;SPS30;68931;47.286;18.756;2024-02-26T01:29:02;0.00;0.00;0.00;0.00;;;;164.67;1.00;
79462;SPS30;68931;47.286;18.756;2024-02-26T01:29:34;0.00;0.00;0.00;0.00;;;;164.00;1.00;
79462;SPS30;68931;47.286;18.756;2024-02-26T01:30:07;0.00;0.00;0.00;0.00;;;;163.00;1.00;
79462;SPS30;68931;47.286;18.756;2024-02-26T01:30:39;0.00;0.00;0.00;0.00;;;;163.00;1.00;
79462;SPS30;68931;47.286;18.756;2024-02-26T01:31:11;0.00;0.00;0.00;0.00;;;;162.67;1.00;
79462;SPS30;68931;47.286;18.756;2024-02-26T01:31:43;0.00;0.00;0.00;0.00;;;;161.00;1.00;
79462;SPS30;68931;47.286;18.756;2024-02-26T01:32:15;0.00;0.00;0.00;0.00;;;;158.33;2.00;
79462;SPS30;68931;47.286;18.756;2024-02-26T01:32:47;0.00;0.00;0.00;0.00;;;;157.67;2.00;
79462;SPS30;68931;47.286;18.756;2024-02-26T01:33:19;0.00;0.00;0.00;0.00;;;;156.67;2.00;
79462;SPS30;68931;47.286;18.756;2024-02-26T01:33:51;0.00;0.00;0.00;0.00;;;;154.67;2.00;
79462;SPS30;68931;47.286;18.756;2024-02-26T01:34:24;0.00;0.00;0.00;0.00;;;;151.00;2.00;
79462;SPS30;68931;47.286;18.756;2024-02-26T01:34:56;0.00;0.00;0.00;0.00;;;;149.00;2.00;
79462;SPS30;68931;47.286;18.756;2024-02-26T01:35:28;0.00;0.00;0.00;0.00;;;;149.00;2.00;
79462;SPS30;68931;47.286;18.756;2024-02-26T01:36:01;0.00;0.00;0.00;0.00;;;;149.00;2.00;
79462;SPS30;68931;47.286;18.756;2024-02-26T01:36:33;0.00;0.00;0.00;0.00;;;;149.33;2.00;
79462;SPS30;68931;47.286;18.756;2024-02-26T01:37:05;0.00;0.00;0.00;0.00;;;;150.33;2.00;
79462;SPS30;68931;47.286;18.756;2024-02-26T01:37:37;0.00;0.00;0.00;0.00;;;;151.00;2.00;
79462;SPS30;68931;47.286;18.756;2024-02-26T01:38:10;0.00;0.00;0.00;0.00;;;;151.33;2.00;
79462;SPS30;68931;47.286;18.756;2024-02-26T01:38:42;0.00;0.00;0.00;0.00;;;;152.00;2.00;
79462;SPS30;68931;47.286;18.756;2024-02-26T01:39:14;0.00;0.00;0.00;0.00;;;;152.67;2.00;
79462;SPS30;68931;47.286;18.756;2024-02-26T01:39:46;0.00;0.00;0.00;0.00;;;;153.33;2.00;
79462;SPS30;68931;47.286;18.756;2024-02-26T01:40:18;0.00;0.00;0.00;0.00;;;;154.00;2.00;
79462;SPS30;68931;47.286;18.756;2024-02-26T01:40:51;0.00;0.00;0.00;0.00;;;;155.00;2.00;
79462;SPS30;68931;47.286;18.756;2024-02-26T01:41:23;0.00;0.00;0.00;0.00;;;;155.67;2.00;
79462;SPS30;68931;47.286;18.756;2024-02-26T01:41:55;0.00;0.00;0.00;0.00;;;;156.33;2.00;
79462;SPS30;68931;47.286;18.756;2024-02-26T01:42:27;0.00;0.00;0.00;0.00;;;;157.67;2.00;
79462;SPS30;68931;47.286;18.756;2024-02-26T01:43:01;0.00;0.00;0.00;0.00;;;;160.00;2.00;
79462;SPS30;68931;47.286;18.756;2024-02-26T01:43:33;0.00;0.00;0.00;0.00;;;;161.00;2.00;
79462;SPS30;68931;47.286;18.756;2024-02-26T01:44:06;0.00;0.00;0.00;0.00;;;;161.00;2.00;
79462;SPS30;68931;47.286;18.756;2024-02-26T01:44:41;0.00;0.00;0.00;0.00;;;;161.00;2.00;
79462;SPS30;68931;47.286;18.756;2024-02-26T01:45:15;0.00;0.00;0.00;0.00;;;;161.00;2.00;
79462;SPS30;68931;47.286;18.756;2024-02-26T01:45:53;0.00;0.00;0.00;0.00;;;;160.33;2.00;
79462;SPS30;68931;47.286;18.756;2024-02-26T01:46:26;0.00;0.00;0.00;0.00;;;;160.00;2.00;
79462;SPS30;68931;47.286;18.756;2024-02-26T01:46:59;0.00;0.00;0.00;0.00;;;;160.00;2.00;
79462;SPS30;68931;47.286;18.756;2024-02-26T01:47:33;0.00;0.00;0.00;0.00;;;;160.33;2.00;
79462;SPS30;68931;47.286;18.756;2024-02-26T01:48:05;0.00;0.00;0.00;0.00;;;;161.00;2.00;
79462;SPS30;68931;47.286;18.756;2024-02-26T01:48:38;0.00;0.00;0.00;0.00;;;;161.00;2.00;
79462;SPS30;68931;47.286;18.756;2024-02-26T01:49:11;0.00;0.00;0.00;0.00;;;;161.00;2.00;
79462;SPS30;68931;47.286;18.756;2024-02-26T01:49:45;0.00;0.00;0.00;0.00;;;;161.00;2.00;
79462;SPS30;68931;47.286;18.756;2024-02-26T01:50:17;0.00;0.00;0.00;0.00;;;;161.00;2.00;
79462;SPS30;68931;47.286;18.756;2024-02-26T01:50:50;0.00;0.00;0.00;0.00;;;;161.00;2.00;
79462;SPS30;68931;47.286;18.756;2024-02-26T01:51:23;0.00;0.00;0.00;0.00;;;;161.00;2.00;
79462;SPS30;68931;47.286;18.756;2024-02-26T01:51:55;0.00;0.00;0.00;0.00;;;;162.00;2.00;
79462;SPS30;68931;47.286;18.756;2024-02-26T01:52:29;0.00;0.00;0.00;0.00;;;;162.00;2.00;
79462;SPS30;68931;47.286;18.756;2024-02-26T01:53:01;0.00;0.00;0.00;0.00;;;;162.00;2.00;
79462;SPS30;68931;47.286;18.756;2024-02-26T01:53:33;0.00;0.00;0.00;0.00;;;;161.67;2.00;
79462;SPS30;68931;47.286;18.756;2024-02-26T01:54:05;0.00;0.00;0.00;0.00;;;;160.67;2.00;
79462;SPS30;68931;47.286;18.756;2024-02-26T01:54:40;0.00;0.00;0.00;0.00;;;;159.33;2.00;
79462;SPS30;68931;47.286;18.756;2024-02-26T01:55:14;0.00;0.00;0.00;0.00;;;;158.33;2.00;
79462;SPS30;68931;47.286;18.756;2024-02-26T01:55:46;0.00;0.00;0.00;0.00;;;;158.00;2.00;
79462;SPS30;68931;47.286;18.756;2024-02-26T01:56:18;0.00;0.00;0.00;0.00;;;;158.00;2.00;
79462;SPS30;68931;47.286;18.756;2024-02-26T01:56:53;0.00;0.00;0.00;0.00;;;;158.00;2.00;
79462;SPS30;68931;47.286;18.756;2024-02-26T01:57:25;0.00;0.00;0.00;0.00;;;;158.00;2.00;
79462;SPS30;68931;47.286;18.756;2024-02-26T01:57:59;0.00;0.00;0.00;0.00;;;;158.00;2.00;
79462;SPS30;68931;47.286;18.756;2024-02-26T01:58:32;0.00;0.00;0.00;0.00;;;;156.33;2.00;
79462;SPS30;68931;47.286;18.756;2024-02-26T01:59:07;0.00;0.00;0.00;0.00;;;;156.00;2.00;
79462;SPS30;68931;47.286;18.756;2024-02-26T01:59:40;0.00;0.00;0.00;0.00;;;;155.00;2.00;
79462;SPS30;68931;47.286;18.756;2024-02-26T02:00:13;0.00;0.00;0.00;0.00;;;;155.00;2.00;
79462;SPS30;68931;47.286;18.756;2024-02-26T02:00:48;0.00;0.00;0.00;0.00;;;;155.00;2.00;
79462;SPS30;68931;47.286;18.756;2024-02-26T02:01:20;0.00;0.00;0.00;0.00;;;;155.00;2.00;
79462;SPS30;68931;47.286;18.756;2024-02-26T02:01:57;0.00;0.00;0.00;0.00;;;;156.00;2.00;
79462;SPS30;68931;47.286;18.756;2024-02-26T02:02:33;0.00;0.00;0.00;0.00;;;;156.67;2.00;
79462;SPS30;68931;47.286;18.756;2024-02-26T02:03:06;0.00;0.00;0.00;0.00;;;;157.00;2.00;
79462;SPS30;68931;47.286;18.756;2024-02-26T02:03:38;0.00;0.00;0.00;0.00;;;;157.67;2.00;
79462;SPS30;68931;47.286;18.756;2024-02-26T02:04:10;0.00;0.00;0.00;0.00;;;;158.33;2.00;
79462;SPS30;68931;47.286;18.756;2024-02-26T02:04:43;0.00;0.00;0.00;0.00;;;;159.67;2.00;
79462;SPS30;68931;47.286;18.756;2024-02-26T02:05:19;0.00;0.00;0.00;0.00;;;;161.00;2.00;
79462;SPS30;68931;47.286;18.756;2024-02-26T02:05:53;0.00;0.00;0.00;0.00;;;;161.33;2.00;
79462;SPS30;68931;47.286;18.756;2024-02-26T02:06:25;0.00;0.00;0.00;0.00;;;;162.33;2.00;
79462;SPS30;68931;47.286;18.756;2024-02-26T02:06:59;0.00;0.00;0.00;0.00;;;;163.67;2.00;
79462;SPS30;68931;47.286;18.756;2024-02-26T02:07:33;0.00;0.00;0.00;0.00;;;;164.00;2.00;
79462;SPS30;68931;47.286;18.756;2024-02-26T02:08:07;0.00;0.00;0.00;0.00;;;;164.00;2.00;
79462;SPS30;68931;47.286;18.756;2024-02-26T02:08:41;0.00;0.00;0.00;0.00;;;;164.00;2.00;
79462;SPS30;68931;47.286;18.756;2024-02-26T02:09:14;0.00;0.00;0.00;0.00;;;;164.00;2.00;
79462;SPS30;68931;47.286;18.756;2024-02-26T02:09:48;0.00;0.00;0.00;0.00;;;;164.00;2.00;
79462;SPS30;68931;47.286;18.756;2024-02-26T02:10:20;0.00;0.00;0.00;0.00;;;;164.00;2.00;
79462;SPS30;68931;47.286;18.756;2024-02-26T02:10:59;0.00;0.00;0.00;0.00;;;;164.00;2.00;
79462;SPS30;68931;47.286;18.756;2024-02-26T02:11:34;0.00;0.00;0.00;0.00;;;;164.00;2.00;
79462;SPS30;68931;47.286;18.756;2024-02-26T02:12:06;0.00;0.00;0.00;0.00;;;;164.33;2.00;
79462;SPS30;68931;47.286;18.756;2024-02-26T02:12:38;0.00;0.00;0.00;0.00;;;;165.67;2.00;
79462;SPS30;68931;47.286;18.756;2024-02-26T02:13:11;0.00;0.00;0.00;0.00;;;;168.00;2.00;
79462;SPS30;68931;47.286;18.756;2024-02-26T02:13:43;0.00;0.00;0.00;0.00;;;;171.00;2.00;
79462;SPS30;68931;47.286;18.756;2024-02-26T02:14:15;0.00;0.00;0.00;0.00;;;;177.67;2.00;
79462;SPS30;68931;47.286;18.756;2024-02-26T02:14:48;0.00;0.00;0.00;0.00;;;;185.67;2.00;
79462;SPS30;68931;47.286;18.756;2024-02-26T02:15:22;0.00;0.00;0.00;0.00;;;;194.33;2.00;
79462;SPS30;68931;47.286;18.756;2024-02-26T02:15:55;0.00;0.00;0.00;0.00;;;;202.67;2.00;
79462;SPS30;68931;47.286;18.756;2024-02-26T02:16:27;0.00;0.00;0.00;0.00;;;;205.67;2.00;
79462;SPS30;68931;47.286;18.756;2024-02-26T02:17:02;0.00;0.00;0.00;0.00;;;;209.33;2.00;
79462;SPS30;68931;47.286;18.756;2024-02-26T02:17:41;0.00;0.00;0.00;0.00;;;;210.00;2.00;
79462;SPS30;68931;47.286;18.756;2024-02-26T02:18:14;0.00;0.00;0.00;0.00;;;;210.00;2.00;
79462;SPS30;68931;47.286;18.756;2024-02-26T02:18:46;0.00;0.00;0.00;0.00;;;;208.67;2.00;
79462;SPS30;68931;47.286;18.756;2024-02-26T02:19:18;0.00;0.00;0.00;0.00;;;;207.67;2.00;
79462;SPS30;68931;47.286;18.756;2024-02-26T02:19:50;0.00;0.00;0.00;0.00;;;;206.67;2.00;
79462;SPS30;68931;47.286;18.756;2024-02-26T02:20:26;0.00;0.00;0.00;0.00;;;;204.67;2.00;
79462;SPS30;68931;47.286;18.756;2024-02-26T02:21:04;0.00;0.00;0.00;0.00;;;;200.00;2.00;
79462;SPS30;68931;47.286;18.756;2024-02-26T02:21:38;0.00;0.00;0.00;0.00;;;;198.33;2.00;
79462;SPS30;68931;47.286;18.756;2024-02-26T02:22:10;0.00;0.00;0.00;0.00;;;;197.33;2.00;
79462;SPS30;68931;47.286;18.756;2024-02-26T02:22:42;0.00;0.00;0.00;0.00;;;;196.67;2.00;
79462;SPS30;68931;47.286;18.756;2024-02-26T02:23:14;0.00;0.00;0.00;0.00;;;;195.67;2.00;
79462;SPS30;68931;47.286;18.756;2024-02-26T02:23:46;0.00;0.00;0.00;0.00;;;;193.00;2.00;
79462;SPS30;68931;47.286;18.756;2024-02-26T02:24:29;0.00;0.00;0.00;0.00;;;;188.00;2.00;
79462;SPS30;68931;47.286;18.756;2024-02-26T02:25:01;0.00;0.00;0.00;0.00;;;;186.00;2.00;
79462;SPS30;68931;47.286;18.756;2024-02-26T02:25:33;0.00;0.00;0.00;0.00;;;;183.33;2.00;
79462;SPS30;68931;47.286;18.756;2024-02-26T02:26:05;0.00;0.00;0.00;0.00;;;;181.00;2.00;
79462;SPS30;68931;47.286;18.756;2024-02-26T02:26:37;0.00;0.00;0.00;0.00;;;;179.00;2.00;
79462;SPS30;68931;47.286;18.756;2024-02-26T02:27:10;0.00;0.00;0.00;0.00;;;;176.33;2.00;